sensor_id;sensor_type;location;lat;lon;timestamp;temperature;humidity
27534;DHT22;14973;51.460;7.008;2023-07-16T00:00:20;19.40;18.80
27534;DHT22;14973;51.460;7.008;2023-07-16T00:02:46;19.30;16.60
27534;DHT22;14973;51.460;7.008;2023-07-16T00:05:12;19.30;17.30
27534;DHT22;14973;51.460;7.008;2023-07-16T00:07:37;19.30;17.90
27534;DHT22;14973;51.460;7.008;2023-07-16T00:10:03;19.40;19.80
27534;DHT22;14973;51.460;7.008;2023-07-16T00:12:29;19.30;22.10
27534;DHT22;14973;51.460;7.008;2023-07-16T00:14:54;19.30;21.20
27534;DHT22;14973;51.460;7.008;2023-07-16T00:17:20;19.40;23.50
27534;DHT22;14973;51.460;7.008;2023-07-16T00:19:46;19.30;27.80
27534;DHT22;14973;51.460;7.008;2023-07-16T00:22:12;19.30;30.80
27534;DHT22;14973;51.460;7.008;2023-07-16T00:24:38;19.10;40.10
27534;DHT22;14973;51.460;7.008;2023-07-16T00:27:04;19.00;44.50
27534;DHT22;14973;51.460;7.008;2023-07-16T00:29:30;19.00;51.10
27534;DHT22;14973;51.460;7.008;2023-07-16T00:31:55;19.10;50.30
27534;DHT22;14973;51.460;7.008;2023-07-16T00:34:21;19.00;43.20
27534;DHT22;14973;51.460;7.008;2023-07-16T00:36:46;19.00;50.90
27534;DHT22;14973;51.460;7.008;2023-07-16T00:39:12;19.10;58.50
27534;DHT22;14973;51.460;7.008;2023-07-16T00:41:37;19.00;66.00
27534;DHT22;14973;51.460;7.008;2023-07-16T00:44:03;19.00;76.50
27534;DHT22;14973;51.460;7.008;2023-07-16T00:46:28;19.00;85.80
27534;DHT22;14973;51.460;7.008;2023-07-16T00:48:54;18.90;92.00
27534;DHT22;14973;51.460;7.008;2023-07-16T00:51:22;18.80;94.30
27534;DHT22;14973;51.460;7.008;2023-07-16T00:53:49;18.60;97.70
27534;DHT22;14973;51.460;7.008;2023-07-16T00:56:17;18.60;99.90
27534;DHT22;14973;51.460;7.008;2023-07-16T00:58:46;18.50;99.90
27534;DHT22;14973;51.460;7.008;2023-07-16T01:01:11;18.40;99.90
27534;DHT22;14973;51.460;7.008;2023-07-16T01:03:37;18.30;99.90
27534;DHT22;14973;51.460;7.008;2023-07-16T01:06:43;18.20;99.90
27534;DHT22;14973;51.460;7.008;2023-07-16T01:09:18;18.20;99.90
27534;DHT22;14973;51.460;7.008;2023-07-16T01:11:45;18.00;99.90
27534;DHT22;14973;51.460;7.008;2023-07-16T01:14:12;18.10;99.90
27534;DHT22;14973;51.460;7.008;2023-07-16T01:16:37;18.00;99.90
27534;DHT22;14973;51.460;7.008;2023-07-16T01:19:03;17.90;99.90
27534;DHT22;14973;51.460;7.008;2023-07-16T01:30:02;17.70;99.90
27534;DHT22;14973;51.460;7.008;2023-07-16T01:32:30;17.70;99.90
27534;DHT22;14973;51.460;7.008;2023-07-16T01:34:57;17.70;99.90
27534;DHT22;14973;51.460;7.008;2023-07-16T01:37:23;17.70;99.90
27534;DHT22;14973;51.460;7.008;2023-07-16T01:39:49;17.60;99.90
27534;DHT22;14973;51.460;7.008;2023-07-16T01:42:15;17.60;99.90
27534;DHT22;14973;51.460;7.008;2023-07-16T01:44:40;17.60;99.90
27534;DHT22;14973;51.460;7.008;2023-07-16T01:47:10;17.60;99.90
27534;DHT22;14973;51.460;7.008;2023-07-16T01:49:36;17.50;99.90
27534;DHT22;14973;51.460;7.008;2023-07-16T01:52:03;17.60;99.90
27534;DHT22;14973;51.460;7.008;2023-07-16T01:54:29;17.50;99.90
27534;DHT22;14973;51.460;7.008;2023-07-16T01:56:54;17.50;99.90
27534;DHT22;14973;51.460;7.008;2023-07-16T01:59:20;17.50;99.90
27534;DHT22;14973;51.460;7.008;2023-07-16T02:01:45;17.70;99.90
27534;DHT22;14973;51.460;7.008;2023-07-16T02:04:11;17.60;99.90
27534;DHT22;14973;51.460;7.008;2023-07-16T02:06:37;17.70;99.90
27534;DHT22;14973;51.460;7.008;2023-07-16T02:09:02;17.90;99.90
27534;DHT22;14973;51.460;7.008;2023-07-16T02:11:28;17.90;99.90
27534;DHT22;14973;51.460;7.008;2023-07-16T02:13:54;17.80;99.90
27534;DHT22;14973;51.460;7.008;2023-07-16T02:16:20;17.90;99.90
27534;DHT22;14973;51.460;7.008;2023-07-16T02:18:45;17.90;99.90
27534;DHT22;14973;51.460;7.008;2023-07-16T02:21:11;17.90;99.90
27534;DHT22;14973;51.460;7.008;2023-07-16T02:23:36;18.00;99.90
27534;DHT22;14973;51.460;7.008;2023-07-16T02:26:02;18.00;99.90
27534;DHT22;14973;51.460;7.008;2023-07-16T02:28:28;18.00;99.90
27534;DHT22;14973;51.460;7.008;2023-07-16T02:30:53;18.10;99.90
27534;DHT22;14973;51.460;7.008;2023-07-16T02:33:19;18.10;99.90
27534;DHT22;14973;51.460;7.008;2023-07-16T02:35:48;18.10;99.90
27534;DHT22;14973;51.460;7.008;2023-07-16T02:38:15;18.10;99.90
27534;DHT22;14973;51.460;7.008;2023-07-16T02:40:44;18.00;99.90
27534;DHT22;14973;51.460;7.008;2023-07-16T02:43:10;18.00;99.90
27534;DHT22;14973;51.460;7.008;2023-07-16T02:45:36;18.00;99.90
27534;DHT22;14973;51.460;7.008;2023-07-16T02:48:02;18.00;99.90
27534;DHT22;14973;51.460;7.008;2023-07-16T02:50:28;18.00;99.90
27534;DHT22;14973;51.460;7.008;2023-07-16T02:52:53;18.00;99.90
27534;DHT22;14973;51.460;7.008;2023-07-16T02:55:19;18.10;99.90
27534;DHT22;14973;51.460;7.008;2023-07-16T02:57:44;18.10;99.90
27534;DHT22;14973;51.460;7.008;2023-07-16T03:00:10;18.10;99.90
27534;DHT22;14973;51.460;7.008;2023-07-16T03:02:36;18.10;99.90
27534;DHT22;14973;51.460;7.008;2023-07-16T03:05:02;18.10;99.90
27534;DHT22;14973;51.460;7.008;2023-07-16T03:07:28;18.10;99.90
27534;DHT22;14973;51.460;7.008;2023-07-16T03:09:54;18.00;99.90
27534;DHT22;14973;51.460;7.008;2023-07-16T03:12:19;18.00;99.90
27534;DHT22;14973;51.460;7.008;2023-07-16T03:14:45;18.00;99.90
27534;DHT22;14973;51.460;7.008;2023-07-16T03:17:10;18.00;99.90
27534;DHT22;14973;51.460;7.008;2023-07-16T03:19:36;18.00;99.90
27534;DHT22;14973;51.460;7.008;2023-07-16T03:22:02;17.80;99.90
27534;DHT22;14973;51.460;7.008;2023-07-16T03:24:28;17.80;99.90
27534;DHT22;14973;51.460;7.008;2023-07-16T03:26:53;17.80;99.90
27534;DHT22;14973;51.460;7.008;2023-07-16T03:29:19;17.70;99.90
27534;DHT22;14973;51.460;7.008;2023-07-16T03:31:44;17.70;99.90
27534;DHT22;14973;51.460;7.008;2023-07-16T03:34:10;17.70;99.90
27534;DHT22;14973;51.460;7.008;2023-07-16T03:36:35;17.70;99.90
27534;DHT22;14973;51.460;7.008;2023-07-16T03:39:01;17.60;99.90
27534;DHT22;14973;51.460;7.008;2023-07-16T03:41:27;17.60;99.90
27534;DHT22;14973;51.460;7.008;2023-07-16T03:43:52;17.60;99.90
27534;DHT22;14973;51.460;7.008;2023-07-16T03:46:18;17.60;95.70
27534;DHT22;14973;51.460;7.008;2023-07-16T03:48:44;17.50;93.70
27534;DHT22;14973;51.460;7.008;2023-07-16T03:51:10;17.60;89.60
27534;DHT22;14973;51.460;7.008;2023-07-16T03:53:35;17.60;82.60
27534;DHT22;14973;51.460;7.008;2023-07-16T03:56:01;17.60;77.40
27534;DHT22;14973;51.460;7.008;2023-07-16T03:58:26;17.60;72.20
27534;DHT22;14973;51.460;7.008;2023-07-16T04:00:54;17.70;62.00
27534;DHT22;14973;51.460;7.008;2023-07-16T04:03:20;17.70;58.60
27534;DHT22;14973;51.460;7.008;2023-07-16T04:05:45;17.80;54.20
27534;DHT22;14973;51.460;7.008;2023-07-16T04:08:11;17.90;49.20
27534;DHT22;14973;51.460;7.008;2023-07-16T04:10:37;18.10;41.30
27534;DHT22;14973;51.460;7.008;2023-07-16T04:13:02;18.70;26.40
27534;DHT22;14973;51.460;7.008;2023-07-16T04:15:28;19.20;1.00
27534;DHT22;14973;51.460;7.008;2023-07-16T04:17:54;19.60;99.90
27534;DHT22;14973;51.460;7.008;2023-07-16T04:20:19;20.10;55.00
27534;DHT22;14973;51.460;7.008;2023-07-16T04:22:45;20.60;99.90
27534;DHT22;14973;51.460;7.008;2023-07-16T04:25:10;21.20;99.90
27534;DHT22;14973;51.460;7.008;2023-07-16T04:27:37;21.60;99.90
27534;DHT22;14973;51.460;7.008;2023-07-16T04:30:03;22.30;82.20
27534;DHT22;14973;51.460;7.008;2023-07-16T04:32:29;22.50;1.00
27534;DHT22;14973;51.460;7.008;2023-07-16T04:34:54;23.00;1.00
27534;DHT22;14973;51.460;7.008;2023-07-16T04:37:20;23.30;1.00
27534;DHT22;14973;51.460;7.008;2023-07-16T04:39:46;23.80;1.00
27534;DHT22;14973;51.460;7.008;2023-07-16T04:42:11;24.20;99.90
27534;DHT22;14973;51.460;7.008;2023-07-16T04:44:37;24.90;99.90
27534;DHT22;14973;51.460;7.008;2023-07-16T04:47:03;25.00;99.90
27534;DHT22;14973;51.460;7.008;2023-07-16T04:49:28;25.40;99.90
27534;DHT22;14973;51.460;7.008;2023-07-16T04:51:54;26.00;99.90
27534;DHT22;14973;51.460;7.008;2023-07-16T04:54:19;26.50;99.90
27534;DHT22;14973;51.460;7.008;2023-07-16T04:56:45;26.80;99.90
27534;DHT22;14973;51.460;7.008;2023-07-16T04:59:10;26.70;99.90
27534;DHT22;14973;51.460;7.008;2023-07-16T05:01:36;27.30;99.90
27534;DHT22;14973;51.460;7.008;2023-07-16T05:04:01;27.90;99.90
27534;DHT22;14973;51.460;7.008;2023-07-16T05:06:27;28.50;99.90
27534;DHT22;14973;51.460;7.008;2023-07-16T05:08:52;28.20;99.90
27534;DHT22;14973;51.460;7.008;2023-07-16T05:11:18;28.00;99.90
27534;DHT22;14973;51.460;7.008;2023-07-16T05:13:44;27.80;99.90
27534;DHT22;14973;51.460;7.008;2023-07-16T05:16:10;28.60;99.90
27534;DHT22;14973;51.460;7.008;2023-07-16T05:18:35;29.40;99.90
27534;DHT22;14973;51.460;7.008;2023-07-16T05:21:01;30.30;99.90
27534;DHT22;14973;51.460;7.008;2023-07-16T05:23:26;30.30;99.90
27534;DHT22;14973;51.460;7.008;2023-07-16T05:25:52;30.50;99.90
27534;DHT22;14973;51.460;7.008;2023-07-16T05:28:18;30.40;99.90
27534;DHT22;14973;51.460;7.008;2023-07-16T05:30:44;30.80;99.90
27534;DHT22;14973;51.460;7.008;2023-07-16T05:33:11;31.40;99.90
27534;DHT22;14973;51.460;7.008;2023-07-16T05:35:37;31.20;99.90
27534;DHT22;14973;51.460;7.008;2023-07-16T05:38:03;31.10;99.90
27534;DHT22;14973;51.460;7.008;2023-07-16T05:40:28;31.00;99.90
27534;DHT22;14973;51.460;7.008;2023-07-16T05:42:54;30.60;99.90
27534;DHT22;14973;51.460;7.008;2023-07-16T05:45:20;30.50;99.90
27534;DHT22;14973;51.460;7.008;2023-07-16T05:47:45;31.20;99.90
27534;DHT22;14973;51.460;7.008;2023-07-16T05:50:11;31.70;99.90
27534;DHT22;14973;51.460;7.008;2023-07-16T05:52:37;31.60;99.90
27534;DHT22;14973;51.460;7.008;2023-07-16T05:55:02;32.10;99.90
27534;DHT22;14973;51.460;7.008;2023-07-16T05:57:28;32.20;99.90
27534;DHT22;14973;51.460;7.008;2023-07-16T05:59:54;31.70;99.90
27534;DHT22;14973;51.460;7.008;2023-07-16T06:02:19;31.00;99.90
27534;DHT22;14973;51.460;7.008;2023-07-16T06:04:45;30.60;99.90
27534;DHT22;14973;51.460;7.008;2023-07-16T06:07:12;31.20;99.90
27534;DHT22;14973;51.460;7.008;2023-07-16T06:09:37;32.60;99.90
27534;DHT22;14973;51.460;7.008;2023-07-16T06:12:03;32.60;99.90
27534;DHT22;14973;51.460;7.008;2023-07-16T06:14:28;31.60;99.90
27534;DHT22;14973;51.460;7.008;2023-07-16T06:16:54;31.40;99.90
27534;DHT22;14973;51.460;7.008;2023-07-16T06:19:20;32.10;99.90
27534;DHT22;14973;51.460;7.008;2023-07-16T06:21:46;33.00;99.90
27534;DHT22;14973;51.460;7.008;2023-07-16T06:24:11;32.40;99.90
27534;DHT22;14973;51.460;7.008;2023-07-16T06:26:37;32.00;99.90
27534;DHT22;14973;51.460;7.008;2023-07-16T06:29:03;32.00;99.90
27534;DHT22;14973;51.460;7.008;2023-07-16T06:31:28;31.30;99.90
27534;DHT22;14973;51.460;7.008;2023-07-16T06:33:54;30.30;99.90
27534;DHT22;14973;51.460;7.008;2023-07-16T06:36:19;30.10;99.90
27534;DHT22;14973;51.460;7.008;2023-07-16T06:38:46;30.00;99.90
27534;DHT22;14973;51.460;7.008;2023-07-16T06:41:12;29.90;99.90
27534;DHT22;14973;51.460;7.008;2023-07-16T06:43:37;29.60;99.90
27534;DHT22;14973;51.460;7.008;2023-07-16T06:46:03;29.60;99.90
27534;DHT22;14973;51.460;7.008;2023-07-16T06:48:29;30.30;99.90
27534;DHT22;14973;51.460;7.008;2023-07-16T06:50:54;31.00;99.90
27534;DHT22;14973;51.460;7.008;2023-07-16T06:53:20;31.40;99.90
27534;DHT22;14973;51.460;7.008;2023-07-16T06:55:47;31.20;99.90
27534;DHT22;14973;51.460;7.008;2023-07-16T06:58:14;31.10;99.90
27534;DHT22;14973;51.460;7.008;2023-07-16T07:00:39;30.90;99.90
27534;DHT22;14973;51.460;7.008;2023-07-16T07:03:05;32.20;99.90
27534;DHT22;14973;51.460;7.008;2023-07-16T07:05:31;32.30;99.90
27534;DHT22;14973;51.460;7.008;2023-07-16T07:07:56;32.90;99.90
27534;DHT22;14973;51.460;7.008;2023-07-16T07:10:22;32.60;99.90
27534;DHT22;14973;51.460;7.008;2023-07-16T07:12:47;33.00;99.90
27534;DHT22;14973;51.460;7.008;2023-07-16T07:15:13;32.80;99.90
27534;DHT22;14973;51.460;7.008;2023-07-16T07:17:39;32.80;99.90
27534;DHT22;14973;51.460;7.008;2023-07-16T07:20:05;32.50;99.90
27534;DHT22;14973;51.460;7.008;2023-07-16T07:22:32;32.00;99.90
27534;DHT22;14973;51.460;7.008;2023-07-16T07:24:57;32.10;99.90
27534;DHT22;14973;51.460;7.008;2023-07-16T07:27:23;32.30;99.90
27534;DHT22;14973;51.460;7.008;2023-07-16T07:29:48;32.50;99.90
27534;DHT22;14973;51.460;7.008;2023-07-16T07:32:18;33.00;99.90
27534;DHT22;14973;51.460;7.008;2023-07-16T07:34:44;32.90;99.90
27534;DHT22;14973;51.460;7.008;2023-07-16T07:37:09;32.70;99.90
27534;DHT22;14973;51.460;7.008;2023-07-16T07:39:35;32.20;99.90
27534;DHT22;14973;51.460;7.008;2023-07-16T07:42:01;32.60;99.90
27534;DHT22;14973;51.460;7.008;2023-07-16T07:44:26;32.10;99.90
27534;DHT22;14973;51.460;7.008;2023-07-16T07:46:52;32.90;99.90
27534;DHT22;14973;51.460;7.008;2023-07-16T07:49:17;34.10;99.90
27534;DHT22;14973;51.460;7.008;2023-07-16T07:51:43;34.60;99.90
27534;DHT22;14973;51.460;7.008;2023-07-16T07:54:08;34.50;99.90
27534;DHT22;14973;51.460;7.008;2023-07-16T07:56:34;34.80;99.90
27534;DHT22;14973;51.460;7.008;2023-07-16T07:58:59;34.20;99.90
27534;DHT22;14973;51.460;7.008;2023-07-16T08:01:25;33.20;99.90
27534;DHT22;14973;51.460;7.008;2023-07-16T08:03:51;32.80;99.90
27534;DHT22;14973;51.460;7.008;2023-07-16T08:06:16;32.90;99.90
27534;DHT22;14973;51.460;7.008;2023-07-16T08:08:42;33.40;99.90
27534;DHT22;14973;51.460;7.008;2023-07-16T08:11:07;33.40;99.90
27534;DHT22;14973;51.460;7.008;2023-07-16T08:13:33;33.50;99.90
27534;DHT22;14973;51.460;7.008;2023-07-16T08:15:58;32.70;99.90
27534;DHT22;14973;51.460;7.008;2023-07-16T08:18:24;32.80;99.90
27534;DHT22;14973;51.460;7.008;2023-07-16T08:20:49;32.30;99.90
27534;DHT22;14973;51.460;7.008;2023-07-16T08:23:15;33.00;99.90
27534;DHT22;14973;51.460;7.008;2023-07-16T08:25:42;33.20;99.90
27534;DHT22;14973;51.460;7.008;2023-07-16T08:28:08;33.40;99.90
27534;DHT22;14973;51.460;7.008;2023-07-16T08:30:33;33.30;99.90
27534;DHT22;14973;51.460;7.008;2023-07-16T08:32:59;32.80;99.90
27534;DHT22;14973;51.460;7.008;2023-07-16T08:35:24;31.60;99.90
27534;DHT22;14973;51.460;7.008;2023-07-16T08:37:50;30.20;99.90
27534;DHT22;14973;51.460;7.008;2023-07-16T08:40:16;29.30;99.90
27534;DHT22;14973;51.460;7.008;2023-07-16T08:42:44;28.60;99.90
27534;DHT22;14973;51.460;7.008;2023-07-16T08:45:11;29.00;99.90
27534;DHT22;14973;51.460;7.008;2023-07-16T08:47:37;30.30;99.90
27534;DHT22;14973;51.460;7.008;2023-07-16T08:50:03;30.80;99.90
27534;DHT22;14973;51.460;7.008;2023-07-16T08:52:29;32.40;99.90
27534;DHT22;14973;51.460;7.008;2023-07-16T08:54:55;32.40;99.90
27534;DHT22;14973;51.460;7.008;2023-07-16T08:57:21;31.90;99.90
27534;DHT22;14973;51.460;7.008;2023-07-16T08:59:51;31.00;99.90
27534;DHT22;14973;51.460;7.008;2023-07-16T09:02:20;31.40;99.90
27534;DHT22;14973;51.460;7.008;2023-07-16T09:04:47;31.10;99.90
27534;DHT22;14973;51.460;7.008;2023-07-16T09:07:13;30.20;99.90
27534;DHT22;14973;51.460;7.008;2023-07-16T09:09:39;29.50;99.90
27534;DHT22;14973;51.460;7.008;2023-07-16T09:12:04;29.30;99.90
27534;DHT22;14973;51.460;7.008;2023-07-16T09:14:30;28.70;99.90
27534;DHT22;14973;51.460;7.008;2023-07-16T09:16:56;29.00;99.90
27534;DHT22;14973;51.460;7.008;2023-07-16T09:19:21;28.60;99.90
27534;DHT22;14973;51.460;7.008;2023-07-16T09:21:48;27.90;99.90
27534;DHT22;14973;51.460;7.008;2023-07-16T09:24:14;27.90;99.90
27534;DHT22;14973;51.460;7.008;2023-07-16T09:26:51;28.80;99.90
27534;DHT22;14973;51.460;7.008;2023-07-16T09:29:18;29.30;99.90
27534;DHT22;14973;51.460;7.008;2023-07-16T09:31:54;30.20;99.90
27534;DHT22;14973;51.460;7.008;2023-07-16T09:34:20;31.10;99.90
27534;DHT22;14973;51.460;7.008;2023-07-16T09:36:47;30.90;99.90
27534;DHT22;14973;51.460;7.008;2023-07-16T09:39:16;30.40;99.90
27534;DHT22;14973;51.460;7.008;2023-07-16T09:41:42;29.80;99.90
27534;DHT22;14973;51.460;7.008;2023-07-16T09:44:09;28.90;99.90
27534;DHT22;14973;51.460;7.008;2023-07-16T09:46:34;27.90;99.90
27534;DHT22;14973;51.460;7.008;2023-07-16T09:49:00;27.40;99.90
27534;DHT22;14973;51.460;7.008;2023-07-16T09:51:26;27.40;99.90
27534;DHT22;14973;51.460;7.008;2023-07-16T09:53:53;28.90;99.90
27534;DHT22;14973;51.460;7.008;2023-07-16T09:56:20;30.50;99.90
27534;DHT22;14973;51.460;7.008;2023-07-16T09:58:46;31.20;99.90
27534;DHT22;14973;51.460;7.008;2023-07-16T10:01:12;31.60;99.90
27534;DHT22;14973;51.460;7.008;2023-07-16T10:03:49;32.20;99.90
27534;DHT22;14973;51.460;7.008;2023-07-16T10:06:15;32.20;99.90
27534;DHT22;14973;51.460;7.008;2023-07-16T10:08:40;32.00;99.90
27534;DHT22;14973;51.460;7.008;2023-07-16T10:11:18;31.40;99.90
27534;DHT22;14973;51.460;7.008;2023-07-16T10:13:49;30.60;99.90
27534;DHT22;14973;51.460;7.008;2023-07-16T10:16:22;29.60;99.90
27534;DHT22;14973;51.460;7.008;2023-07-16T10:18:51;28.90;99.90
27534;DHT22;14973;51.460;7.008;2023-07-16T10:21:23;28.80;99.90
27534;DHT22;14973;51.460;7.008;2023-07-16T10:23:59;28.90;99.90
27534;DHT22;14973;51.460;7.008;2023-07-16T10:26:28;29.00;99.90
27534;DHT22;14973;51.460;7.008;2023-07-16T10:28:54;29.20;99.90
27534;DHT22;14973;51.460;7.008;2023-07-16T10:31:25;28.60;99.90
27534;DHT22;14973;51.460;7.008;2023-07-16T10:36:25;28.50;99.90
27534;DHT22;14973;51.460;7.008;2023-07-16T10:38:51;28.70;99.90
27534;DHT22;14973;51.460;7.008;2023-07-16T10:41:17;28.70;99.90
27534;DHT22;14973;51.460;7.008;2023-07-16T10:43:43;28.90;99.90
27534;DHT22;14973;51.460;7.008;2023-07-16T10:46:09;28.60;99.90
27534;DHT22;14973;51.460;7.008;2023-07-16T10:48:35;28.50;99.90
27534;DHT22;14973;51.460;7.008;2023-07-16T10:51:00;27.90;99.90
27534;DHT22;14973;51.460;7.008;2023-07-16T10:53:26;27.90;99.90
27534;DHT22;14973;51.460;7.008;2023-07-16T10:55:51;28.00;99.90
27534;DHT22;14973;51.460;7.008;2023-07-16T10:58:17;27.80;99.90
27534;DHT22;14973;51.460;7.008;2023-07-16T11:00:42;26.90;99.90
27534;DHT22;14973;51.460;7.008;2023-07-16T11:03:09;26.40;99.90
27534;DHT22;14973;51.460;7.008;2023-07-16T11:05:35;26.10;99.90
27534;DHT22;14973;51.460;7.008;2023-07-16T11:08:01;26.20;99.90
27534;DHT22;14973;51.460;7.008;2023-07-16T11:10:29;26.40;99.90
27534;DHT22;14973;51.460;7.008;2023-07-16T11:12:55;26.30;99.90
27534;DHT22;14973;51.460;7.008;2023-07-16T11:15:34;26.50;99.90
27534;DHT22;14973;51.460;7.008;2023-07-16T11:18:01;26.40;99.90
27534;DHT22;14973;51.460;7.008;2023-07-16T11:20:26;26.80;99.90
27534;DHT22;14973;51.460;7.008;2023-07-16T11:22:52;26.70;99.90
27534;DHT22;14973;51.460;7.008;2023-07-16T11:25:18;26.10;99.90
27534;DHT22;14973;51.460;7.008;2023-07-16T11:27:45;25.80;99.90
27534;DHT22;14973;51.460;7.008;2023-07-16T11:30:11;25.50;99.90
27534;DHT22;14973;51.460;7.008;2023-07-16T11:32:46;25.40;99.90
27534;DHT22;14973;51.460;7.008;2023-07-16T11:35:18;25.40;99.90
27534;DHT22;14973;51.460;7.008;2023-07-16T11:37:44;25.40;99.90
27534;DHT22;14973;51.460;7.008;2023-07-16T11:40:18;25.60;99.90
27534;DHT22;14973;51.460;7.008;2023-07-16T11:42:44;25.70;99.90
27534;DHT22;14973;51.460;7.008;2023-07-16T11:45:23;25.70;99.90
27534;DHT22;14973;51.460;7.008;2023-07-16T11:47:52;25.70;99.90
27534;DHT22;14973;51.460;7.008;2023-07-16T11:50:18;25.80;99.90
27534;DHT22;14973;51.460;7.008;2023-07-16T11:52:55;25.70;99.90
27534;DHT22;14973;51.460;7.008;2023-07-16T11:55:21;25.20;99.90
27534;DHT22;14973;51.460;7.008;2023-07-16T11:57:46;25.20;99.90
27534;DHT22;14973;51.460;7.008;2023-07-16T12:00:12;25.10;99.90
27534;DHT22;14973;51.460;7.008;2023-07-16T12:02:38;25.10;99.90
27534;DHT22;14973;51.460;7.008;2023-07-16T12:05:04;25.10;99.90
27534;DHT22;14973;51.460;7.008;2023-07-16T12:07:36;24.90;99.90
27534;DHT22;14973;51.460;7.008;2023-07-16T12:10:03;24.80;99.90
27534;DHT22;14973;51.460;7.008;2023-07-16T12:12:29;25.10;99.90
27534;DHT22;14973;51.460;7.008;2023-07-16T12:14:55;25.30;99.90
27534;DHT22;14973;51.460;7.008;2023-07-16T12:17:20;25.40;99.90
27534;DHT22;14973;51.460;7.008;2023-07-16T12:19:46;25.30;99.90
27534;DHT22;14973;51.460;7.008;2023-07-16T12:22:12;25.30;99.90
27534;DHT22;14973;51.460;7.008;2023-07-16T12:24:37;25.30;99.90
27534;DHT22;14973;51.460;7.008;2023-07-16T12:27:03;25.20;99.90
27534;DHT22;14973;51.460;7.008;2023-07-16T12:29:29;25.20;99.90
27534;DHT22;14973;51.460;7.008;2023-07-16T12:31:54;25.10;99.90
27534;DHT22;14973;51.460;7.008;2023-07-16T12:34:20;25.40;99.90
27534;DHT22;14973;51.460;7.008;2023-07-16T12:36:45;25.40;99.90
27534;DHT22;14973;51.460;7.008;2023-07-16T12:39:11;25.60;99.90
27534;DHT22;14973;51.460;7.008;2023-07-16T12:41:36;25.40;99.90
27534;DHT22;14973;51.460;7.008;2023-07-16T12:44:02;25.50;99.90
27534;DHT22;14973;51.460;7.008;2023-07-16T12:46:28;25.40;99.90
27534;DHT22;14973;51.460;7.008;2023-07-16T12:48:53;25.40;99.90
27534;DHT22;14973;51.460;7.008;2023-07-16T12:51:19;25.60;99.90
27534;DHT22;14973;51.460;7.008;2023-07-16T12:53:44;25.60;99.90
27534;DHT22;14973;51.460;7.008;2023-07-16T12:56:10;25.50;99.90
27534;DHT22;14973;51.460;7.008;2023-07-16T12:58:35;25.40;99.90
27534;DHT22;14973;51.460;7.008;2023-07-16T13:01:01;25.30;99.90
27534;DHT22;14973;51.460;7.008;2023-07-16T13:03:27;25.50;99.90
27534;DHT22;14973;51.460;7.008;2023-07-16T13:05:53;25.60;99.90
27534;DHT22;14973;51.460;7.008;2023-07-16T13:08:19;25.60;99.90
27534;DHT22;14973;51.460;7.008;2023-07-16T13:10:45;25.80;99.90
27534;DHT22;14973;51.460;7.008;2023-07-16T13:13:10;26.10;99.90
27534;DHT22;14973;51.460;7.008;2023-07-16T13:15:36;26.30;99.90
27534;DHT22;14973;51.460;7.008;2023-07-16T13:18:01;26.60;99.90
27534;DHT22;14973;51.460;7.008;2023-07-16T13:20:27;26.90;99.90
27534;DHT22;14973;51.460;7.008;2023-07-16T13:22:55;27.30;99.90
27534;DHT22;14973;51.460;7.008;2023-07-16T13:25:20;27.40;99.90
27534;DHT22;14973;51.460;7.008;2023-07-16T13:27:46;27.50;99.90
27534;DHT22;14973;51.460;7.008;2023-07-16T13:30:13;27.60;99.90
27534;DHT22;14973;51.460;7.008;2023-07-16T13:32:39;27.50;99.90
27534;DHT22;14973;51.460;7.008;2023-07-16T13:35:04;26.90;99.90
27534;DHT22;14973;51.460;7.008;2023-07-16T13:37:30;26.50;99.90
27534;DHT22;14973;51.460;7.008;2023-07-16T13:39:56;26.40;99.90
27534;DHT22;14973;51.460;7.008;2023-07-16T13:42:21;26.40;99.90
27534;DHT22;14973;51.460;7.008;2023-07-16T13:44:47;26.50;99.90
27534;DHT22;14973;51.460;7.008;2023-07-16T13:47:12;26.40;99.90
27534;DHT22;14973;51.460;7.008;2023-07-16T13:49:38;26.10;99.90
27534;DHT22;14973;51.460;7.008;2023-07-16T13:52:03;26.00;99.90
27534;DHT22;14973;51.460;7.008;2023-07-16T13:54:29;25.90;99.90
27534;DHT22;14973;51.460;7.008;2023-07-16T13:56:55;25.80;99.90
27534;DHT22;14973;51.460;7.008;2023-07-16T13:59:20;25.70;99.90
27534;DHT22;14973;51.460;7.008;2023-07-16T14:01:46;25.80;99.90
27534;DHT22;14973;51.460;7.008;2023-07-16T14:04:12;25.90;99.90
27534;DHT22;14973;51.460;7.008;2023-07-16T14:06:38;26.10;99.90
27534;DHT22;14973;51.460;7.008;2023-07-16T14:09:03;26.00;99.90
27534;DHT22;14973;51.460;7.008;2023-07-16T14:11:30;26.20;99.90
27534;DHT22;14973;51.460;7.008;2023-07-16T14:13:56;26.30;99.90
27534;DHT22;14973;51.460;7.008;2023-07-16T14:16:21;26.60;99.90
27534;DHT22;14973;51.460;7.008;2023-07-16T14:18:52;26.50;99.90
27534;DHT22;14973;51.460;7.008;2023-07-16T14:21:18;26.70;99.90
27534;DHT22;14973;51.460;7.008;2023-07-16T14:23:44;26.80;99.90
27534;DHT22;14973;51.460;7.008;2023-07-16T14:26:09;26.70;99.90
27534;DHT22;14973;51.460;7.008;2023-07-16T14:28:35;26.80;99.90
27534;DHT22;14973;51.460;7.008;2023-07-16T14:31:01;26.60;99.90
27534;DHT22;14973;51.460;7.008;2023-07-16T14:33:26;26.60;99.90
27534;DHT22;14973;51.460;7.008;2023-07-16T14:35:53;26.70;99.90
27534;DHT22;14973;51.460;7.008;2023-07-16T14:38:18;26.70;99.90
27534;DHT22;14973;51.460;7.008;2023-07-16T14:40:44;26.50;99.90
27534;DHT22;14973;51.460;7.008;2023-07-16T14:43:09;26.30;99.90
27534;DHT22;14973;51.460;7.008;2023-07-16T14:45:35;26.10;99.90
27534;DHT22;14973;51.460;7.008;2023-07-16T14:48:01;26.10;99.90
27534;DHT22;14973;51.460;7.008;2023-07-16T14:50:27;26.30;99.90
27534;DHT22;14973;51.460;7.008;2023-07-16T14:52:53;26.50;99.90
27534;DHT22;14973;51.460;7.008;2023-07-16T14:55:19;26.60;99.90
27534;DHT22;14973;51.460;7.008;2023-07-16T14:57:44;26.60;99.90
27534;DHT22;14973;51.460;7.008;2023-07-16T15:00:11;26.70;99.90
27534;DHT22;14973;51.460;7.008;2023-07-16T15:02:37;26.60;99.90
27534;DHT22;14973;51.460;7.008;2023-07-16T15:05:04;26.80;99.90
27534;DHT22;14973;51.460;7.008;2023-07-16T15:07:30;26.60;99.90
27534;DHT22;14973;51.460;7.008;2023-07-16T15:09:56;26.50;99.90
27534;DHT22;14973;51.460;7.008;2023-07-16T15:12:22;26.60;99.90
27534;DHT22;14973;51.460;7.008;2023-07-16T15:14:47;26.60;99.90
27534;DHT22;14973;51.460;7.008;2023-07-16T15:17:13;26.60;99.90
27534;DHT22;14973;51.460;7.008;2023-07-16T15:19:39;26.50;99.90
27534;DHT22;14973;51.460;7.008;2023-07-16T15:22:06;26.30;99.90
27534;DHT22;14973;51.460;7.008;2023-07-16T15:24:31;25.80;99.90
27534;DHT22;14973;51.460;7.008;2023-07-16T15:26:57;25.80;99.90
27534;DHT22;14973;51.460;7.008;2023-07-16T15:29:22;25.70;99.90
27534;DHT22;14973;51.460;7.008;2023-07-16T15:31:48;25.70;99.90
27534;DHT22;14973;51.460;7.008;2023-07-16T15:34:14;25.60;99.90